sensor_id;sensor_type;location;lat;lon;timestamp;pressure;altitude;pressure_sealevel;temperature;humidity
77110;BME280;66062;52.464;16.922;2023-08-24T00:01:57;100810.53;;;19.90;77.37
77110;BME280;66062;52.464;16.922;2023-08-24T00:04:22;100808.09;;;19.74;79.30
77110;BME280;66062;52.464;16.922;2023-08-24T00:06:48;100803.84;;;19.64;79.98
77110;BME280;66062;52.464;16.922;2023-08-24T00:09:13;100811.25;;;19.56;80.30
77110;BME280;66062;52.464;16.922;2023-08-24T00:11:41;100808.75;;;19.54;81.20
77110;BME280;66062;52.464;16.922;2023-08-24T00:14:06;100808.69;;;19.48;81.41
77110;BME280;66062;52.464;16.922;2023-08-24T00:16:32;100811.09;;;19.43;81.54
77110;BME280;66062;52.464;16.922;2023-08-24T00:18:57;100808.44;;;19.28;81.23
77110;BME280;66062;52.464;16.922;2023-08-24T00:21:23;100808.63;;;19.27;81.12
77110;BME280;66062;52.464;16.922;2023-08-24T00:23:50;100808.00;;;19.25;81.75
77110;BME280;66062;52.464;16.922;2023-08-24T00:26:15;100803.28;;;19.33;81.39
77110;BME280;66062;52.464;16.922;2023-08-24T00:28:44;100803.91;;;19.35;81.17
77110;BME280;66062;52.464;16.922;2023-08-24T00:31:09;100816.66;;;19.20;81.30
77110;BME280;66062;52.464;16.922;2023-08-24T00:33:35;100811.06;;;19.21;81.37
77110;BME280;66062;52.464;16.922;2023-08-24T00:36:01;100818.34;;;19.21;81.16
77110;BME280;66062;52.464;16.922;2023-08-24T00:38:26;100813.59;;;19.23;81.86
77110;BME280;66062;52.464;16.922;2023-08-24T00:40:52;100812.94;;;19.21;82.08
77110;BME280;66062;52.464;16.922;2023-08-24T00:43:19;100812.28;;;19.19;81.69
77110;BME280;66062;52.464;16.922;2023-08-24T00:45:49;100809.31;;;19.14;82.23
77110;BME280;66062;52.464;16.922;2023-08-24T00:48:15;100821.94;;;19.07;82.73
77110;BME280;66062;52.464;16.922;2023-08-24T00:50:41;100817.66;;;18.98;82.95
77110;BME280;66062;52.464;16.922;2023-08-24T00:53:06;100821.00;;;19.00;82.82
77110;BME280;66062;52.464;16.922;2023-08-24T00:55:32;100831.38;;;18.96;83.12
77110;BME280;66062;52.464;16.922;2023-08-24T00:57:58;100823.25;;;18.96;83.37
77110;BME280;66062;52.464;16.922;2023-08-24T01:00:24;100819.41;;;19.05;82.13
77110;BME280;66062;52.464;16.922;2023-08-24T01:02:49;100823.97;;;19.05;81.97
77110;BME280;66062;52.464;16.922;2023-08-24T01:05:15;100822.09;;;19.05;82.51
77110;BME280;66062;52.464;16.922;2023-08-24T01:07:40;100822.84;;;19.14;82.31
77110;BME280;66062;52.464;16.922;2023-08-24T01:10:07;100822.00;;;19.13;82.33
77110;BME280;66062;52.464;16.922;2023-08-24T01:12:46;100814.47;;;19.09;82.82
77110;BME280;66062;52.464;16.922;2023-08-24T01:15:32;100814.84;;;19.06;82.86
77110;BME280;66062;52.464;16.922;2023-08-24T01:18:02;100821.56;;;18.95;83.56
77110;BME280;66062;52.464;16.922;2023-08-24T01:20:30;100823.44;;;18.95;83.39
77110;BME280;66062;52.464;16.922;2023-08-24T01:23:04;100824.94;;;18.83;84.11
77110;BME280;66062;52.464;16.922;2023-08-24T01:25:51;100821.69;;;18.72;84.88
77110;BME280;66062;52.464;16.922;2023-08-24T01:28:19;100824.69;;;18.77;84.88
77110;BME280;66062;52.464;16.922;2023-08-24T01:30:46;100819.28;;;18.77;84.27
77110;BME280;66062;52.464;16.922;2023-08-24T01:33:11;100816.47;;;18.71;85.70
77110;BME280;66062;52.464;16.922;2023-08-24T01:35:39;100824.41;;;18.72;85.45
77110;BME280;66062;52.464;16.922;2023-08-24T01:38:04;100826.44;;;18.70;85.27
77110;BME280;66062;52.464;16.922;2023-08-24T01:40:43;100826.25;;;18.72;85.13
77110;BME280;66062;52.464;16.922;2023-08-24T01:43:13;100825.16;;;18.66;85.31
77110;BME280;66062;52.464;16.922;2023-08-24T01:45:41;100824.59;;;18.56;85.76
77110;BME280;66062;52.464;16.922;2023-08-24T01:48:09;100823.19;;;18.60;85.69
77110;BME280;66062;52.464;16.922;2023-08-24T01:50:35;100821.03;;;18.56;85.88
77110;BME280;66062;52.464;16.922;2023-08-24T01:53:02;100817.84;;;18.52;86.22
77110;BME280;66062;52.464;16.922;2023-08-24T01:55:27;100817.56;;;18.32;87.13
77110;BME280;66062;52.464;16.922;2023-08-24T01:57:55;100818.03;;;18.36;87.50
77110;BME280;66062;52.464;16.922;2023-08-24T02:00:20;100819.25;;;18.33;87.22
77110;BME280;66062;52.464;16.922;2023-08-24T02:02:46;100822.97;;;18.32;87.95
77110;BME280;66062;52.464;16.922;2023-08-24T02:05:11;100824.16;;;18.30;87.32
77110;BME280;66062;52.464;16.922;2023-08-24T02:07:38;100822.84;;;18.26;87.93
77110;BME280;66062;52.464;16.922;2023-08-24T02:10:04;100829.56;;;18.30;87.74
77110;BME280;66062;52.464;16.922;2023-08-24T02:12:30;100826.97;;;18.22;87.88
77110;BME280;66062;52.464;16.922;2023-08-24T02:14:55;100824.16;;;18.15;88.10
77110;BME280;66062;52.464;16.922;2023-08-24T02:17:21;100827.03;;;18.14;88.60
77110;BME280;66062;52.464;16.922;2023-08-24T02:19:46;100829.84;;;18.20;88.49
77110;BME280;66062;52.464;16.922;2023-08-24T02:22:11;100828.44;;;18.24;87.88
77110;BME280;66062;52.464;16.922;2023-08-24T02:24:37;100828.06;;;18.13;88.64
77110;BME280;66062;52.464;16.922;2023-08-24T02:27:02;100832.25;;;18.15;88.33
77110;BME280;66062;52.464;16.922;2023-08-24T02:29:29;100826.00;;;18.15;88.71
77110;BME280;66062;52.464;16.922;2023-08-24T02:31:55;100827.03;;;18.14;88.47
77110;BME280;66062;52.464;16.922;2023-08-24T02:34:21;100825.88;;;18.08;88.93
77110;BME280;66062;52.464;16.922;2023-08-24T02:36:46;100825.25;;;18.06;89.00
77110;BME280;66062;52.464;16.922;2023-08-24T02:39:12;100825.44;;;18.05;89.21
77110;BME280;66062;52.464;16.922;2023-08-24T02:41:38;100818.34;;;18.04;89.26
77110;BME280;66062;52.464;16.922;2023-08-24T02:44:04;100824.97;;;18.01;89.30
77110;BME280;66062;52.464;16.922;2023-08-24T02:46:29;100819.19;;;18.04;89.18
77110;BME280;66062;52.464;16.922;2023-08-24T02:48:55;100824.13;;;18.01;89.40
77110;BME280;66062;52.464;16.922;2023-08-24T02:51:23;100830.19;;;18.03;89.37
77110;BME280;66062;52.464;16.922;2023-08-24T02:53:49;100823.81;;;17.95;89.77
77110;BME280;66062;52.464;16.922;2023-08-24T02:56:15;100817.75;;;17.93;90.34
77110;BME280;66062;52.464;16.922;2023-08-24T02:58:40;100820.19;;;18.03;89.95
77110;BME280;66062;52.464;16.922;2023-08-24T03:01:06;100819.56;;;18.01;89.76
77110;BME280;66062;52.464;16.922;2023-08-24T03:03:35;100820.75;;;17.99;90.29
77110;BME280;66062;52.464;16.922;2023-08-24T03:06:03;100815.06;;;17.93;89.63
77110;BME280;66062;52.464;16.922;2023-08-24T03:08:30;100814.59;;;17.90;90.36
77110;BME280;66062;52.464;16.922;2023-08-24T03:10:57;100821.69;;;17.91;90.12
77110;BME280;66062;52.464;16.922;2023-08-24T03:13:22;100818.22;;;17.82;91.15
77110;BME280;66062;52.464;16.922;2023-08-24T03:15:48;100815.50;;;17.82;90.97
77110;BME280;66062;52.464;16.922;2023-08-24T03:18:15;100822.78;;;17.82;90.99
77110;BME280;66062;52.464;16.922;2023-08-24T03:20:41;100820.31;;;17.72;91.09
77110;BME280;66062;52.464;16.922;2023-08-24T03:23:07;100816.34;;;17.60;91.61
77110;BME280;66062;52.464;16.922;2023-08-24T03:25:35;100810.59;;;17.63;91.62
77110;BME280;66062;52.464;16.922;2023-08-24T03:28:02;100818.03;;;17.61;91.94
77110;BME280;66062;52.464;16.922;2023-08-24T03:30:27;100814.16;;;17.56;91.97
77110;BME280;66062;52.464;16.922;2023-08-24T03:32:53;100814.66;;;17.59;91.55
77110;BME280;66062;52.464;16.922;2023-08-24T03:35:18;100816.69;;;17.57;91.98
77110;BME280;66062;52.464;16.922;2023-08-24T03:37:43;100816.03;;;17.55;92.09
77110;BME280;66062;52.464;16.922;2023-08-24T03:40:09;100817.38;;;17.59;91.83
77110;BME280;66062;52.464;16.922;2023-08-24T03:42:35;100821.97;;;17.73;91.38
77110;BME280;66062;52.464;16.922;2023-08-24T03:45:01;100816.13;;;17.70;91.57
77110;BME280;66062;52.464;16.922;2023-08-24T03:47:27;100826.66;;;17.57;92.66
77110;BME280;66062;52.464;16.922;2023-08-24T03:49:52;100824.28;;;17.53;92.21
77110;BME280;66062;52.464;16.922;2023-08-24T03:52:17;100829.22;;;17.50;92.96
77110;BME280;66062;52.464;16.922;2023-08-24T03:54:43;100835.63;;;17.49;92.85
77110;BME280;66062;52.464;16.922;2023-08-24T03:57:08;100841.16;;;17.56;93.06
77110;BME280;66062;52.464;16.922;2023-08-24T03:59:33;100832.59;;;17.52;93.55
77110;BME280;66062;52.464;16.922;2023-08-24T04:01:59;100833.88;;;17.64;92.50
77110;BME280;66062;52.464;16.922;2023-08-24T04:04:27;100834.06;;;17.54;92.90
77110;BME280;66062;52.464;16.922;2023-08-24T04:06:53;100829.53;;;17.55;92.61
77110;BME280;66062;52.464;16.922;2023-08-24T04:09:18;100836.94;;;17.53;93.45
77110;BME280;66062;52.464;16.922;2023-08-24T04:11:44;100831.34;;;17.63;92.40
77110;BME280;66062;52.464;16.922;2023-08-24T04:14:09;100830.16;;;17.65;92.67
77110;BME280;66062;52.464;16.922;2023-08-24T04:16:35;100840.53;;;17.76;92.87
77110;BME280;66062;52.464;16.922;2023-08-24T04:19:01;100838.44;;;17.86;91.75
77110;BME280;66062;52.464;16.922;2023-08-24T04:21:26;100841.72;;;17.97;91.01
77110;BME280;66062;52.464;16.922;2023-08-24T04:23:51;100845.84;;;18.07;90.96
77110;BME280;66062;52.464;16.922;2023-08-24T04:26:17;100849.00;;;18.11;90.45
77110;BME280;66062;52.464;16.922;2023-08-24T04:28:42;100846.50;;;18.24;89.06
77110;BME280;66062;52.464;16.922;2023-08-24T04:31:08;100848.03;;;18.41;87.95
77110;BME280;66062;52.464;16.922;2023-08-24T04:33:33;100842.53;;;18.34;88.94
77110;BME280;66062;52.464;16.922;2023-08-24T04:35:59;100847.56;;;18.37;88.73
77110;BME280;66062;52.464;16.922;2023-08-24T04:38:24;100847.28;;;18.18;90.13
77110;BME280;66062;52.464;16.922;2023-08-24T04:40:52;100846.16;;;18.27;89.78
77110;BME280;66062;52.464;16.922;2023-08-24T04:43:18;100851.47;;;18.50;88.73
77110;BME280;66062;52.464;16.922;2023-08-24T04:45:48;100840.97;;;18.69;87.35
77110;BME280;66062;52.464;16.922;2023-08-24T04:48:15;100850.78;;;18.85;86.37
77110;BME280;66062;52.464;16.922;2023-08-24T04:50:44;100848.44;;;18.97;86.28
77110;BME280;66062;52.464;16.922;2023-08-24T04:53:10;100855.59;;;19.19;84.58
77110;BME280;66062;52.464;16.922;2023-08-24T04:55:35;100855.91;;;19.31;84.15
77110;BME280;66062;52.464;16.922;2023-08-24T04:58:00;100853.63;;;19.13;85.77
77110;BME280;66062;52.464;16.922;2023-08-24T05:00:26;100852.81;;;18.98;86.91
77110;BME280;66062;52.464;16.922;2023-08-24T05:02:51;100846.66;;;18.74;87.68
77110;BME280;66062;52.464;16.922;2023-08-24T05:05:17;100843.97;;;19.04;86.44
77110;BME280;66062;52.464;16.922;2023-08-24T05:07:42;100848.97;;;19.07;86.69
77110;BME280;66062;52.464;16.922;2023-08-24T05:10:08;100842.97;;;19.26;85.79
77110;BME280;66062;52.464;16.922;2023-08-24T05:12:33;100840.19;;;19.05;86.00
77110;BME280;66062;52.464;16.922;2023-08-24T05:15:05;100843.19;;;19.25;87.30
77110;BME280;66062;52.464;16.922;2023-08-24T05:17:30;100840.41;;;19.03;89.05
77110;BME280;66062;52.464;16.922;2023-08-24T05:19:57;100837.75;;;19.25;87.16
77110;BME280;66062;52.464;16.922;2023-08-24T05:22:23;100832.22;;;19.33;85.43
77110;BME280;66062;52.464;16.922;2023-08-24T05:24:48;100838.22;;;19.28;86.41
77110;BME280;66062;52.464;16.922;2023-08-24T05:27:14;100840.91;;;18.63;90.17
77110;BME280;66062;52.464;16.922;2023-08-24T05:29:39;100847.75;;;17.99;94.84
77110;BME280;66062;52.464;16.922;2023-08-24T05:32:05;100847.47;;;17.93;96.57
77110;BME280;66062;52.464;16.922;2023-08-24T05:34:30;100843.91;;;18.16;95.08
77110;BME280;66062;52.464;16.922;2023-08-24T05:36:56;100842.25;;;18.44;92.79
77110;BME280;66062;52.464;16.922;2023-08-24T05:39:21;100835.78;;;18.83;90.16
77110;BME280;66062;52.464;16.922;2023-08-24T05:41:50;100843.03;;;18.97;89.11
77110;BME280;66062;52.464;16.922;2023-08-24T05:44:15;100841.41;;;19.17;87.82
77110;BME280;66062;52.464;16.922;2023-08-24T05:46:42;100854.53;;;19.49;85.95
77110;BME280;66062;52.464;16.922;2023-08-24T05:49:07;100844.50;;;19.71;84.18
77110;BME280;66062;52.464;16.922;2023-08-24T05:51:33;100840.25;;;20.04;83.35
77110;BME280;66062;52.464;16.922;2023-08-24T05:53:59;100840.19;;;20.88;78.49
77110;BME280;66062;52.464;16.922;2023-08-24T05:56:25;100843.47;;;21.79;73.33
77110;BME280;66062;52.464;16.922;2023-08-24T05:58:50;100853.06;;;21.81;71.69
77110;BME280;66062;52.464;16.922;2023-08-24T06:01:16;100861.81;;;21.70;71.31
77110;BME280;66062;52.464;16.922;2023-08-24T06:03:41;100849.13;;;22.43;69.60
77110;BME280;66062;52.464;16.922;2023-08-24T06:06:06;100855.00;;;22.40;69.88
77110;BME280;66062;52.464;16.922;2023-08-24T06:08:34;100849.34;;;21.95;69.85
77110;BME280;66062;52.464;16.922;2023-08-24T06:10:59;100849.97;;;22.17;68.97
77110;BME280;66062;52.464;16.922;2023-08-24T06:13:25;100852.00;;;23.32;65.41
77110;BME280;66062;52.464;16.922;2023-08-24T06:15:50;100852.75;;;25.01;59.23
77110;BME280;66062;52.464;16.922;2023-08-24T06:18:16;100847.72;;;26.17;55.13
77110;BME280;66062;52.464;16.922;2023-08-24T06:20:41;100848.75;;;26.46;52.82
77110;BME280;66062;52.464;16.922;2023-08-24T06:23:07;100850.50;;;26.75;51.10
77110;BME280;66062;52.464;16.922;2023-08-24T06:25:33;100841.25;;;27.56;48.49
77110;BME280;66062;52.464;16.922;2023-08-24T06:27:59;100842.19;;;26.24;52.37
77110;BME280;66062;52.464;16.922;2023-08-24T06:30:25;100829.19;;;27.17;50.33
77110;BME280;66062;52.464;16.922;2023-08-24T06:32:50;100830.69;;;25.02;54.63
77110;BME280;66062;52.464;16.922;2023-08-24T06:35:16;100828.44;;;26.01;49.48
77110;BME280;66062;52.464;16.922;2023-08-24T06:37:42;100825.75;;;27.22;46.17
77110;BME280;66062;52.464;16.922;2023-08-24T06:40:08;100818.13;;;28.69;41.20
77110;BME280;66062;52.464;16.922;2023-08-24T06:42:34;100832.31;;;28.44;38.77
77110;BME280;66062;52.464;16.922;2023-08-24T06:44:59;100816.72;;;28.67;38.79
77110;BME280;66062;52.464;16.922;2023-08-24T06:47:25;100818.56;;;29.00;40.26
77110;BME280;66062;52.464;16.922;2023-08-24T06:49:50;100818.91;;;29.30;38.21
77110;BME280;66062;52.464;16.922;2023-08-24T06:52:16;100821.72;;;30.52;35.83
77110;BME280;66062;52.464;16.922;2023-08-24T06:54:41;100809.47;;;32.03;33.00
77110;BME280;66062;52.464;16.922;2023-08-24T06:57:08;100811.88;;;30.30;35.97
77110;BME280;66062;52.464;16.922;2023-08-24T06:59:33;100814.44;;;30.04;37.02
77110;BME280;66062;52.464;16.922;2023-08-24T07:01:59;100814.38;;;31.56;33.85
77110;BME280;66062;52.464;16.922;2023-08-24T07:04:25;100813.03;;;32.54;32.83
77110;BME280;66062;52.464;16.922;2023-08-24T07:06:52;100811.97;;;33.15;30.95
77110;BME280;66062;52.464;16.922;2023-08-24T07:09:18;100813.31;;;33.76;30.40
77110;BME280;66062;52.464;16.922;2023-08-24T07:11:43;100828.19;;;34.48;27.56
77110;BME280;66062;52.464;16.922;2023-08-24T07:14:10;100825.69;;;34.75;27.21
77110;BME280;66062;52.464;16.922;2023-08-24T07:16:35;100820.38;;;32.94;31.42
77110;BME280;66062;52.464;16.922;2023-08-24T07:19:01;100833.72;;;32.77;31.31
77110;BME280;66062;52.464;16.922;2023-08-24T07:21:27;100825.16;;;34.16;30.68
77110;BME280;66062;52.464;16.922;2023-08-24T07:23:52;100825.72;;;32.71;32.40
77110;BME280;66062;52.464;16.922;2023-08-24T07:26:18;100823.16;;;32.94;31.19
77110;BME280;66062;52.464;16.922;2023-08-24T07:28:43;100829.09;;;31.92;32.72
77110;BME280;66062;52.464;16.922;2023-08-24T07:31:09;100825.63;;;33.01;31.03
77110;BME280;66062;52.464;16.922;2023-08-24T07:33:36;100833.78;;;31.91;31.01
77110;BME280;66062;52.464;16.922;2023-08-24T07:36:04;100834.38;;;31.06;32.22
77110;BME280;66062;52.464;16.922;2023-08-24T07:38:29;100828.56;;;34.08;28.87
77110;BME280;66062;52.464;16.922;2023-08-24T07:40:56;100838.94;;;30.80;30.21
77110;BME280;66062;52.464;16.922;2023-08-24T07:43:21;100834.06;;;34.70;25.89
77110;BME280;66062;52.464;16.922;2023-08-24T07:45:46;100843.97;;;30.14;30.34
77110;BME280;66062;52.464;16.922;2023-08-24T07:48:12;100834.69;;;31.14;29.52
77110;BME280;66062;52.464;16.922;2023-08-24T07:50:37;100834.88;;;31.95;28.91
77110;BME280;66062;52.464;16.922;2023-08-24T07:53:03;100840.72;;;29.37;32.68
77110;BME280;66062;52.464;16.922;2023-08-24T07:55:29;100832.53;;;29.42;36.12
77110;BME280;66062;52.464;16.922;2023-08-24T07:57:55;100836.66;;;31.19;32.52
77110;BME280;66062;52.464;16.922;2023-08-24T08:00:21;100839.75;;;31.37;32.93
77110;BME280;66062;52.464;16.922;2023-08-24T08:02:49;100840.03;;;31.41;31.37
77110;BME280;66062;52.464;16.922;2023-08-24T08:05:14;100846.66;;;30.04;35.67
77110;BME280;66062;52.464;16.922;2023-08-24T08:07:40;100842.78;;;30.84;34.42
77110;BME280;66062;52.464;16.922;2023-08-24T08:10:06;100838.72;;;29.81;32.77
77110;BME280;66062;52.464;16.922;2023-08-24T08:12:32;100841.41;;;31.38;31.46
77110;BME280;66062;52.464;16.922;2023-08-24T08:14:58;100838.28;;;33.71;28.02
77110;BME280;66062;52.464;16.922;2023-08-24T08:17:23;100836.09;;;35.31;25.43
77110;BME280;66062;52.464;16.922;2023-08-24T08:19:49;100837.25;;;34.30;29.34
77110;BME280;66062;52.464;16.922;2023-08-24T08:22:19;100834.59;;;34.15;29.34
77110;BME280;66062;52.464;16.922;2023-08-24T08:24:44;100833.56;;;35.11;27.19
77110;BME280;66062;52.464;16.922;2023-08-24T08:27:09;100840.34;;;35.85;25.61
77110;BME280;66062;52.464;16.922;2023-08-24T08:29:35;100835.63;;;34.53;28.63
77110;BME280;66062;52.464;16.922;2023-08-24T08:32:01;100835.78;;;35.14;27.45
77110;BME280;66062;52.464;16.922;2023-08-24T08:34:26;100843.44;;;31.73;31.62
77110;BME280;66062;52.464;16.922;2023-08-24T08:36:52;100841.53;;;35.60;26.80
77110;BME280;66062;52.464;16.922;2023-08-24T08:39:17;100840.69;;;36.62;25.54
77110;BME280;66062;52.464;16.922;2023-08-24T08:41:43;100850.22;;;35.53;26.57
77110;BME280;66062;52.464;16.922;2023-08-24T08:44:12;100842.53;;;37.71;22.82
77110;BME280;66062;52.464;16.922;2023-08-24T08:46:39;100851.25;;;34.72;26.03
77110;BME280;66062;52.464;16.922;2023-08-24T08:49:06;100835.00;;;36.94;24.03
77110;BME280;66062;52.464;16.922;2023-08-24T08:51:33;100844.94;;;33.65;28.05
77110;BME280;66062;52.464;16.922;2023-08-24T08:53:59;100844.81;;;35.43;27.41
77110;BME280;66062;52.464;16.922;2023-08-24T08:56:26;100842.13;;;36.73;24.76
77110;BME280;66062;52.464;16.922;2023-08-24T08:58:52;100847.81;;;36.81;24.83
77110;BME280;66062;52.464;16.922;2023-08-24T09:01:17;100849.47;;;34.82;27.59
77110;BME280;66062;52.464;16.922;2023-08-24T09:03:44;100842.97;;;37.28;24.56
77110;BME280;66062;52.464;16.922;2023-08-24T09:06:10;100841.50;;;38.02;23.15
77110;BME280;66062;52.464;16.922;2023-08-24T09:08:36;100834.81;;;38.34;22.73
77110;BME280;66062;52.464;16.922;2023-08-24T09:11:02;100837.66;;;38.82;21.88
77110;BME280;66062;52.464;16.922;2023-08-24T09:13:28;100838.06;;;38.89;21.95
77110;BME280;66062;52.464;16.922;2023-08-24T09:15:53;100836.41;;;39.45;21.42
77110;BME280;66062;52.464;16.922;2023-08-24T09:18:19;100829.19;;;37.81;23.66
77110;BME280;66062;52.464;16.922;2023-08-24T09:20:46;100830.69;;;37.15;24.08
77110;BME280;66062;52.464;16.922;2023-08-24T09:23:18;100825.44;;;36.73;24.26
77110;BME280;66062;52.464;16.922;2023-08-24T09:25:47;100827.75;;;37.48;23.29
77110;BME280;66062;52.464;16.922;2023-08-24T09:28:13;100820.28;;;38.46;22.29
77110;BME280;66062;52.464;16.922;2023-08-24T09:30:38;100819.50;;;38.54;21.67
77110;BME280;66062;52.464;16.922;2023-08-24T09:33:09;100816.78;;;34.79;27.62
77110;BME280;66062;52.464;16.922;2023-08-24T09:35:36;100809.50;;;37.78;22.81
77110;BME280;66062;52.464;16.922;2023-08-24T09:38:22;100820.13;;;38.20;22.55
77110;BME280;66062;52.464;16.922;2023-08-24T09:40:52;100814.22;;;36.92;23.60
77110;BME280;66062;52.464;16.922;2023-08-24T09:43:19;100810.41;;;38.40;22.48
77110;BME280;66062;52.464;16.922;2023-08-24T09:45:52;100816.72;;;38.54;21.48
77110;BME280;66062;52.464;16.922;2023-08-24T09:48:18;100808.44;;;36.74;23.43
77110;BME280;66062;52.464;16.922;2023-08-24T09:50:48;100811.47;;;35.99;25.87
77110;BME280;66062;52.464;16.922;2023-08-24T09:53:17;100800.28;;;36.64;25.64
77110;BME280;66062;52.464;16.922;2023-08-24T09:55:54;100785.03;;;37.03;24.69
77110;BME280;66062;52.464;16.922;2023-08-24T09:58:23;100781.59;;;37.19;23.43
77110;BME280;66062;52.464;16.922;2023-08-24T10:00:50;100791.94;;;35.11;27.04
77110;BME280;66062;52.464;16.922;2023-08-24T10:03:18;100789.59;;;35.23;26.01
77110;BME280;66062;52.464;16.922;2023-08-24T10:05:56;100772.56;;;36.32;24.90
77110;BME280;66062;52.464;16.922;2023-08-24T10:08:50;100770.16;;;35.93;27.51
77110;BME280;66062;52.464;16.922;2023-08-24T10:11:22;100779.75;;;38.18;23.54
77110;BME280;66062;52.464;16.922;2023-08-24T10:13:55;100774.19;;;37.15;23.08
77110;BME280;66062;52.464;16.922;2023-08-24T10:16:23;100773.69;;;36.44;24.30
77110;BME280;66062;52.464;16.922;2023-08-24T10:18:49;100774.47;;;37.27;24.54
77110;BME280;66062;52.464;16.922;2023-08-24T10:21:17;100775.78;;;37.65;23.01
77110;BME280;66062;52.464;16.922;2023-08-24T10:23:45;100772.25;;;36.01;26.67
77110;BME280;66062;52.464;16.922;2023-08-24T10:26:12;100763.28;;;33.97;27.41
77110;BME280;66062;52.464;16.922;2023-08-24T10:28:38;100767.00;;;33.82;28.53
77110;BME280;66062;52.464;16.922;2023-08-24T10:31:04;100765.19;;;32.69;29.96
77110;BME280;66062;52.464;16.922;2023-08-24T10:33:30;100758.69;;;31.79;31.60
77110;BME280;66062;52.464;16.922;2023-08-24T10:35:57;100761.22;;;33.78;27.01
77110;BME280;66062;52.464;16.922;2023-08-24T10:38:30;100761.66;;;31.32;33.06
77110;BME280;66062;52.464;16.922;2023-08-24T10:41:03;100757.75;;;34.25;27.10
77110;BME280;66062;52.464;16.922;2023-08-24T10:43:29;100748.97;;;35.46;27.91
77110;BME280;66062;52.464;16.922;2023-08-24T10:45:59;100738.25;;;37.63;22.67
77110;BME280;66062;52.464;16.922;2023-08-24T10:48:29;100736.41;;;37.58;24.57
77110;BME280;66062;52.464;16.922;2023-08-24T10:54:06;100734.88;;;36.67;24.07
77110;BME280;66062;52.464;16.922;2023-08-24T10:56:36;100724.00;;;37.28;24.04
77110;BME280;66062;52.464;16.922;2023-08-24T10:59:13;100733.94;;;35.98;24.07
77110;BME280;66062;52.464;16.922;2023-08-24T11:01:53;100727.00;;;35.49;24.40
77110;BME280;66062;52.464;16.922;2023-08-24T11:04:19;100717.28;;;36.12;25.49
77110;BME280;66062;52.464;16.922;2023-08-24T11:09:18;100713.63;;;35.70;25.26
77110;BME280;66062;52.464;16.922;2023-08-24T11:11:55;100703.94;;;36.41;24.99
77110;BME280;66062;52.464;16.922;2023-08-24T11:14:22;100705.38;;;36.25;26.83
77110;BME280;66062;52.464;16.922;2023-08-24T11:16:50;100698.53;;;35.25;27.38
77110;BME280;66062;52.464;16.922;2023-08-24T11:19:16;100708.13;;;33.71;29.96
77110;BME280;66062;52.464;16.922;2023-08-24T11:21:44;100712.09;;;32.62;30.73
77110;BME280;66062;52.464;16.922;2023-08-24T11:24:14;100713.72;;;32.73;31.89
77110;BME280;66062;52.464;16.922;2023-08-24T11:26:44;100718.84;;;32.10;31.44
77110;BME280;66062;52.464;16.922;2023-08-24T11:29:11;100709.78;;;31.14;33.06
77110;BME280;66062;52.464;16.922;2023-08-24T11:31:37;100704.78;;;29.59;34.69
77110;BME280;66062;52.464;16.922;2023-08-24T11:34:03;100696.00;;;31.49;32.46
77110;BME280;66062;52.464;16.922;2023-08-24T11:36:30;100688.31;;;33.20;29.57
77110;BME280;66062;52.464;16.922;2023-08-24T11:38:57;100696.16;;;34.76;29.08
77110;BME280;66062;52.464;16.922;2023-08-24T11:41:24;100690.28;;;35.85;27.75
77110;BME280;66062;52.464;16.922;2023-08-24T11:43:58;100690.97;;;32.91;29.85
77110;BME280;66062;52.464;16.922;2023-08-24T11:46:24;100699.72;;;30.72;33.95
77110;BME280;66062;52.464;16.922;2023-08-24T11:48:50;100689.38;;;31.60;33.48
77110;BME280;66062;52.464;16.922;2023-08-24T11:51:24;100699.19;;;30.28;33.66
77110;BME280;66062;52.464;16.922;2023-08-24T11:53:55;100699.78;;;30.92;33.23
77110;BME280;66062;52.464;16.922;2023-08-24T11:56:22;100697.94;;;31.94;32.01
77110;BME280;66062;52.464;16.922;2023-08-24T11:58:49;100698.50;;;33.25;28.64
77110;BME280;66062;52.464;16.922;2023-08-24T12:01:28;100697.06;;;31.08;32.50
77110;BME280;66062;52.464;16.922;2023-08-24T12:04:07;100694.59;;;31.16;31.69
77110;BME280;66062;52.464;16.922;2023-08-24T12:06:33;100688.47;;;32.10;30.40
77110;BME280;66062;52.464;16.922;2023-08-24T12:08:58;100693.09;;;33.43;29.13
77110;BME280;66062;52.464;16.922;2023-08-24T12:11:24;100686.25;;;34.70;27.38
77110;BME280;66062;52.464;16.922;2023-08-24T12:13:54;100673.78;;;33.67;28.14
77110;BME280;66062;52.464;16.922;2023-08-24T12:16:21;100680.72;;;34.46;27.15
77110;BME280;66062;52.464;16.922;2023-08-24T12:19:07;100676.72;;;33.08;30.01
77110;BME280;66062;52.464;16.922;2023-08-24T12:21:33;100676.50;;;33.77;29.42
77110;BME280;66062;52.464;16.922;2023-08-24T12:24:03;100672.19;;;32.83;30.25
77110;BME280;66062;52.464;16.922;2023-08-24T12:26:31;100672.56;;;32.56;30.08
77110;BME280;66062;52.464;16.922;2023-08-24T12:29:00;100675.31;;;32.66;33.07
77110;BME280;66062;52.464;16.922;2023-08-24T12:31:28;100672.09;;;32.44;31.31
77110;BME280;66062;52.464;16.922;2023-08-24T12:34:08;100660.47;;;32.47;33.43
77110;BME280;66062;52.464;16.922;2023-08-24T12:36:38;100661.22;;;31.53;35.45
77110;BME280;66062;52.464;16.922;2023-08-24T12:39:06;100662.25;;;30.86;35.51
77110;BME280;66062;52.464;16.922;2023-08-24T12:41:36;100658.19;;;31.65;33.74
77110;BME280;66062;52.464;16.922;2023-08-24T12:44:04;100648.28;;;31.69;33.59
77110;BME280;66062;52.464;16.922;2023-08-24T12:46:34;100641.16;;;32.96;30.86